PAWGPAJN

Guest
Details From PAWG - WRANGELL
To PAJN - Juneau Intl
Flight Number -
Tags generated
Created
Modified
Stats Distance 140 nm / 258 km
Max Altitude 8,400 ft / 2,560 m
Waypoints 4
Social Downloads 1
Likes 0
Share VATSIM

Download

Looking for another format? Having issues loading an existing format? Contact us
Advertisement - Login to hide

Notes

Basic altitude profile: - Ascent Rate: 2500ft/min - Ascent Speed: 250kts - Cruise Altitude: 35000ft - Cruise Speed: 420kts - Descent Rate: 1500ft/min - Descent Speed: 250kts Options: - Use NATs: yes - Use PACOTS: yes - Use low airways: yes - Use high airways: yes

Route

PAWG FPN T266 CGL PAJN

ID Type Via Altitude Latitude Longitude Leg Dist Tot Dist Heading (true) Name
O PAWG APT - 0 ft / 0 m 56.48432˚ -132.36983˚ - 0 nm - WRANGELL
FPN NDB - 8,400 ft / 2,560 m 56.79225˚ -132.82097˚ 23 nm 23 nm 321° / 321° FREDERICKS POINT NDB
CGL NDB T266 (AWY-LO) 7,000 ft / 2,134 m 58.35933˚ -134.69944˚ 111 nm 135 nm 328° / 326° COGHLAN ISLAND NDB
O PAJN APT - 0 ft / 0 m 58.35496˚ -134.57628˚ 3 nm 139 nm 94° / 94° Juneau Intl

Altitude Profile

Advertisement - Login to hide

PAWG

Details ICAO PAWG (WRG)
Name WRANGELL
Region USA (Alaska)
Timezone America/Juneau (UTC-9.0)
Stats Elevation 44 ft / 13 m (AMSL)
Location 56.484324° -132.369832°
Runways 1
Magnetic Variation 18.809° E

METAR

PAWG 150156Z 20005KT 10SM BKN025 OVC035 07/03 A3006

Decode

TAF

TAF PAWG 142325Z 1500/1524 21008KT 6SM -SHRA OVC030 FM150500 17008KT 6SM -SHRA BR SCT015 OVC025 FM151900 14007KT P6SM -SHRA SCT015 OVC025 AMD LTD TO CLD VIS AND WIND 1506/1515

Decode

Departure Runways

ID Width Length Bearing (true) Bearing (mag) Surface Threshold Offset Overrun Length
10 150 ft / 46 m 5,983 ft / 1,824 m 121.43° 102.62° Asphalt 0 ft / 0 m 0 ft / 0 m
28 150 ft / 46 m 5,983 ft / 1,824 m 301.45° 282.64° Asphalt 0 ft / 0 m 0 ft / 0 m

PAJN

Details ICAO PAJN (JNU)
Name Juneau Intl
Region USA (Alaska)
Timezone America/Juneau (UTC-9.0)
Stats Elevation 21 ft / 6 m (AMSL)
Location 58.354964° -134.576278°
Runways 1
Magnetic Variation 19.148° E

METAR

PAJN 150153Z VRB03KT 10SM FEW024 SCT055 BKN100 06/02 A2990

Decode

TAF

PAJN 142325Z 1500/1524 11010KT 6SM -SHRA BR FEW015 OVC040 WS020/21030KT FM150400 11010KT 6SM -SHRA BR SCT005 BKN030 OVC040 FM151900 10009KT P6SM VCSH SCT030 OVC035

Decode

Destination Runways

ID Width Length Bearing (true) Bearing (mag) Surface Threshold Offset Overrun Length
08 150 ft / 46 m 8,430 ft / 2,570 m 104.87° 85.72° Asphalt 0 ft / 0 m 450 ft / 137 m
26 150 ft / 46 m 8,430 ft / 2,570 m 284.90° 265.75° Asphalt 0 ft / 0 m 225 ft / 69 m

Approach Navaids

Runway Type Ident Frequency Range Bearing (true) Bearing (mag) Slope Elevation
08 Localiser IJDL 109.90 MHz 18 nm / 33 km 84.92° 65.77° - 21 ft / 6 m (AMSL)
08 DME IJDL 109.90 MHz 18 nm / 33 km - - - 175 ft / 53 m (AMSL)

Popular Alternatives